sensor_id;sensor_type;location;lat;lon;timestamp;P1;P2;P0
73832;PMS7003;62179;48.444;-4.464;2023-05-07T18:25:29;11.75;8.75;6.00
73832;PMS7003;62179;48.444;-4.464;2023-05-07T18:27:55;7.50;5.75;5.00
73832;PMS7003;62179;48.444;-4.464;2023-05-07T18:30:20;3.00;3.00;2.00
73832;PMS7003;62179;48.444;-4.464;2023-05-07T18:32:46;2.00;2.00;2.00
73832;PMS7003;62179;48.444;-4.464;2023-05-07T18:35:12;1.00;1.00;1.00
73832;PMS7003;62179;48.444;-4.464;2023-05-07T18:37:37;1.00;0.25;0.00
73832;PMS7003;62179;48.444;-4.464;2023-05-07T18:40:03;2.00;0.00;0.00
73832;PMS7003;62179;48.444;-4.464;2023-05-07T18:42:29;0.75;0.75;0.25
73832;PMS7003;62179;48.444;-4.464;2023-05-07T18:44:55;0.00;0.00;0.00
73832;PMS7003;62179;48.444;-4.464;2023-05-07T18:47:24;4.75;2.00;1.25
73832;PMS7003;62179;48.444;-4.464;2023-05-07T18:49:51;3.25;2.25;1.00
73832;PMS7003;62179;48.444;-4.464;2023-05-07T18:52:18;2.00;1.00;0.00
73832;PMS7003;62179;48.444;-4.464;2023-05-07T18:54:46;1.00;0.00;0.00
73832;PMS7003;62179;48.444;-4.464;2023-05-07T18:57:12;0.00;0.00;0.00
73832;PMS7003;62179;48.444;-4.464;2023-05-07T18:59:37;0.00;0.00;0.00
73832;PMS7003;62179;48.444;-4.464;2023-05-07T19:02:02;0.00;0.00;0.00
73832;PMS7003;62179;48.444;-4.464;2023-05-07T19:04:28;0.75;0.75;0.25
73832;PMS7003;62179;48.444;-4.464;2023-05-07T19:06:54;1.00;1.00;0.50
73832;PMS7003;62179;48.444;-4.464;2023-05-07T19:09:20;1.50;1.25;1.00
73832;PMS7003;62179;48.444;-4.464;2023-05-07T19:11:45;2.00;0.00;0.00
73832;PMS7003;62179;48.444;-4.464;2023-05-07T19:14:11;0.00;0.00;0.00
73832;PMS7003;62179;48.444;-4.464;2023-05-07T19:16:41;0.50;0.50;0.00
73832;PMS7003;62179;48.444;-4.464;2023-05-07T19:19:09;0.00;0.00;0.00
73832;PMS7003;62179;48.444;-4.464;2023-05-07T19:21:34;0.25;0.00;0.00
73832;PMS7003;62179;48.444;-4.464;2023-05-07T19:24:00;0.50;0.50;0.00
73832;PMS7003;62179;48.444;-4.464;2023-05-07T19:26:25;1.50;1.50;0.50
73832;PMS7003;62179;48.444;-4.464;2023-05-07T19:28:57;0.00;0.00;0.00
73832;PMS7003;62179;48.444;-4.464;2023-05-07T19:31:23;0.00;0.00;0.00
73832;PMS7003;62179;48.444;-4.464;2023-05-07T19:33:52;2.00;1.00;0.75
73832;PMS7003;62179;48.444;-4.464;2023-05-07T19:36:19;1.75;1.75;0.75
73832;PMS7003;62179;48.444;-4.464;2023-05-07T19:38:47;1.75;1.75;1.50
73832;PMS7003;62179;48.444;-4.464;2023-05-07T19:41:20;1.50;1.00;0.00
73832;PMS7003;62179;48.444;-4.464;2023-05-07T19:43:51;5.00;4.00;3.50
73832;PMS7003;62179;48.444;-4.464;2023-05-07T19:46:16;5.75;5.00;3.25
73832;PMS7003;62179;48.444;-4.464;2023-05-07T19:48:42;1.00;1.00;1.00
73832;PMS7003;62179;48.444;-4.464;2023-05-07T19:51:08;3.00;2.00;1.00
73832;PMS7003;62179;48.444;-4.464;2023-05-07T19:53:35;2.50;1.50;1.00
73832;PMS7003;62179;48.444;-4.464;2023-05-07T19:56:08;2.00;2.00;1.00
73832;PMS7003;62179;48.444;-4.464;2023-05-07T19:58:35;4.00;2.00;2.00
73832;PMS7003;62179;48.444;-4.464;2023-05-07T20:01:01;2.25;2.25;1.00
73832;PMS7003;62179;48.444;-4.464;2023-05-07T20:03:27;3.25;3.25;1.00
73832;PMS7003;62179;48.444;-4.464;2023-05-07T20:05:54;4.25;3.00;2.00
73832;PMS7003;62179;48.444;-4.464;2023-05-07T20:08:19;4.50;3.50;2.00
73832;PMS7003;62179;48.444;-4.464;2023-05-07T20:10:46;5.75;3.75;2.25
73832;PMS7003;62179;48.444;-4.464;2023-05-07T20:13:12;6.25;4.00;3.00
73832;PMS7003;62179;48.444;-4.464;2023-05-07T20:15:38;3.50;3.00;2.00
73832;PMS7003;62179;48.444;-4.464;2023-05-07T20:18:03;6.00;4.00;3.00
73832;PMS7003;62179;48.444;-4.464;2023-05-07T20:20:29;3.00;3.00;2.00
73832;PMS7003;62179;48.444;-4.464;2023-05-07T20:22:55;5.50;5.50;3.25
73832;PMS7003;62179;48.444;-4.464;2023-05-07T20:25:22;5.25;5.25;2.75
73832;PMS7003;62179;48.444;-4.464;2023-05-07T20:27:48;4.50;4.50;3.00
73832;PMS7003;62179;48.444;-4.464;2023-05-07T20:30:18;7.50;4.25;3.00
73832;PMS7003;62179;48.444;-4.464;2023-05-07T20:32:44;4.00;4.00;3.00
73832;PMS7003;62179;48.444;-4.464;2023-05-07T20:35:10;6.00;4.00;3.75
73832;PMS7003;62179;48.444;-4.464;2023-05-07T20:37:37;4.00;2.50;2.00
73832;PMS7003;62179;48.444;-4.464;2023-05-07T20:40:03;3.75;3.75;2.00
73832;PMS7003;62179;48.444;-4.464;2023-05-07T20:42:29;4.00;4.00;3.00
73832;PMS7003;62179;48.444;-4.464;2023-05-07T20:44:55;5.25;4.50;2.50
73832;PMS7003;62179;48.444;-4.464;2023-05-07T20:47:20;4.75;3.00;2.00
73832;PMS7003;62179;48.444;-4.464;2023-05-07T20:49:49;3.00;2.25;1.50
73832;PMS7003;62179;48.444;-4.464;2023-05-07T20:52:15;2.00;2.00;1.50
73832;PMS7003;62179;48.444;-4.464;2023-05-07T20:54:41;3.00;2.25;1.75
73832;PMS7003;62179;48.444;-4.464;2023-05-07T20:57:08;3.25;3.00;2.00
73832;PMS7003;62179;48.444;-4.464;2023-05-07T20:59:34;6.75;3.75;2.75
73832;PMS7003;62179;48.444;-4.464;2023-05-07T21:02:00;5.00;3.75;2.00
73832;PMS7003;62179;48.444;-4.464;2023-05-07T21:04:27;3.50;2.25;1.50
73832;PMS7003;62179;48.444;-4.464;2023-05-07T21:06:53;2.00;2.00;1.00
73832;PMS7003;62179;48.444;-4.464;2023-05-07T21:09:19;3.00;3.00;2.00
73832;PMS7003;62179;48.444;-4.464;2023-05-07T21:11:44;4.50;2.00;2.00
73832;PMS7003;62179;48.444;-4.464;2023-05-07T21:14:10;2.50;1.25;1.00
73832;PMS7003;62179;48.444;-4.464;2023-05-07T21:16:35;5.00;1.00;1.00
73832;PMS7003;62179;48.444;-4.464;2023-05-07T21:19:01;3.75;3.00;2.00
73832;PMS7003;62179;48.444;-4.464;2023-05-07T21:21:26;3.75;2.50;2.00
73832;PMS7003;62179;48.444;-4.464;2023-05-07T21:23:52;3.00;2.00;1.00
73832;PMS7003;62179;48.444;-4.464;2023-05-07T21:26:18;2.00;1.50;1.00
73832;PMS7003;62179;48.444;-4.464;2023-05-07T21:28:44;3.25;2.25;1.00
73832;PMS7003;62179;48.444;-4.464;2023-05-07T21:31:10;3.00;2.00;1.00
73832;PMS7003;62179;48.444;-4.464;2023-05-07T21:33:36;3.00;3.00;1.00
73832;PMS7003;62179;48.444;-4.464;2023-05-07T21:36:02;3.00;3.00;1.75
73832;PMS7003;62179;48.444;-4.464;2023-05-07T21:38:27;3.25;2.75;2.25
73832;PMS7003;62179;48.444;-4.464;2023-05-07T21:40:53;5.25;3.00;2.00
73832;PMS7003;62179;48.444;-4.464;2023-05-07T21:43:22;2.25;1.00;1.00
73832;PMS7003;62179;48.444;-4.464;2023-05-07T21:45:47;4.00;2.75;2.00
73832;PMS7003;62179;48.444;-4.464;2023-05-07T21:48:13;4.00;3.00;1.25
73832;PMS7003;62179;48.444;-4.464;2023-05-07T21:50:45;4.00;3.50;3.00
73832;PMS7003;62179;48.444;-4.464;2023-05-07T21:53:11;4.00;2.00;2.00
73832;PMS7003;62179;48.444;-4.464;2023-05-07T21:55:36;5.50;3.50;2.00
73832;PMS7003;62179;48.444;-4.464;2023-05-07T21:58:02;4.00;4.00;2.00
73832;PMS7003;62179;48.444;-4.464;2023-05-07T22:00:27;3.25;3.25;3.00
73832;PMS7003;62179;48.444;-4.464;2023-05-07T22:02:53;5.00;3.50;2.50
73832;PMS7003;62179;48.444;-4.464;2023-05-07T22:05:19;3.25;2.00;1.00
73832;PMS7003;62179;48.444;-4.464;2023-05-07T22:07:44;5.50;3.75;2.50
73832;PMS7003;62179;48.444;-4.464;2023-05-07T22:10:09;4.50;4.00;3.00
73832;PMS7003;62179;48.444;-4.464;2023-05-07T22:12:35;3.50;3.00;2.00
73832;PMS7003;62179;48.444;-4.464;2023-05-07T22:15:00;4.75;4.75;2.75
73832;PMS7003;62179;48.444;-4.464;2023-05-07T22:17:26;6.25;4.00;4.00
73832;PMS7003;62179;48.444;-4.464;2023-05-07T22:19:51;3.00;3.00;1.25
73832;PMS7003;62179;48.444;-4.464;2023-05-07T22:22:17;6.50;4.00;2.00
73832;PMS7003;62179;48.444;-4.464;2023-05-07T22:24:43;3.50;2.00;1.00
73832;PMS7003;62179;48.444;-4.464;2023-05-07T22:27:09;4.25;1.50;1.00
73832;PMS7003;62179;48.444;-4.464;2023-05-07T22:29:35;4.00;3.00;2.25
73832;PMS7003;62179;48.444;-4.464;2023-05-07T22:32:01;4.00;3.00;1.00
73832;PMS7003;62179;48.444;-4.464;2023-05-07T22:34:27;4.00;2.75;1.50
73832;PMS7003;62179;48.444;-4.464;2023-05-07T22:36:53;3.00;2.50;2.00
73832;PMS7003;62179;48.444;-4.464;2023-05-07T22:39:18;3.00;3.00;1.00
73832;PMS7003;62179;48.444;-4.464;2023-05-07T22:41:43;1.75;1.00;1.00
73832;PMS7003;62179;48.444;-4.464;2023-05-07T22:44:09;3.00;1.75;1.00
73832;PMS7003;62179;48.444;-4.464;2023-05-07T22:46:35;2.50;1.50;1.50
73832;PMS7003;62179;48.444;-4.464;2023-05-07T22:49:01;6.00;2.75;2.00
73832;PMS7003;62179;48.444;-4.464;2023-05-07T22:51:27;2.00;2.00;1.50
73832;PMS7003;62179;48.444;-4.464;2023-05-07T22:53:52;4.00;2.00;1.25
73832;PMS7003;62179;48.444;-4.464;2023-05-07T22:56:17;3.25;3.25;2.00
73832;PMS7003;62179;48.444;-4.464;2023-05-07T22:58:43;3.50;1.50;1.00
73832;PMS7003;62179;48.444;-4.464;2023-05-07T23:01:12;5.75;2.50;1.00
73832;PMS7003;62179;48.444;-4.464;2023-05-07T23:03:38;2.50;2.00;1.50
73832;PMS7003;62179;48.444;-4.464;2023-05-07T23:06:04;1.00;1.00;0.75
73832;PMS7003;62179;48.444;-4.464;2023-05-07T23:08:30;2.00;2.00;1.00
73832;PMS7003;62179;48.444;-4.464;2023-05-07T23:10:55;3.00;1.75;1.00
73832;PMS7003;62179;48.444;-4.464;2023-05-07T23:13:21;4.50;4.00;2.00
73832;PMS7003;62179;48.444;-4.464;2023-05-07T23:15:46;2.75;2.75;1.00
73832;PMS7003;62179;48.444;-4.464;2023-05-07T23:18:12;4.00;2.25;1.25
73832;PMS7003;62179;48.444;-4.464;2023-05-07T23:20:37;3.75;3.25;2.00
73832;PMS7003;62179;48.444;-4.464;2023-05-07T23:23:05;4.00;3.50;1.50
73832;PMS7003;62179;48.444;-4.464;2023-05-07T23:25:31;4.25;2.00;1.00
73832;PMS7003;62179;48.444;-4.464;2023-05-07T23:27:56;2.25;2.00;1.25
73832;PMS7003;62179;48.444;-4.464;2023-05-07T23:30:22;2.00;2.00;1.00
73832;PMS7003;62179;48.444;-4.464;2023-05-07T23:32:47;1.00;1.00;0.50
73832;PMS7003;62179;48.444;-4.464;2023-05-07T23:35:13;2.00;2.00;1.50
73832;PMS7003;62179;48.444;-4.464;2023-05-07T23:37:38;2.75;1.25;1.00
73832;PMS7003;62179;48.444;-4.464;2023-05-07T23:40:04;1.50;1.50;1.00
73832;PMS7003;62179;48.444;-4.464;2023-05-07T23:42:30;1.75;0.50;0.50
73832;PMS7003;62179;48.444;-4.464;2023-05-07T23:44:56;1.50;1.50;1.00
73832;PMS7003;62179;48.444;-4.464;2023-05-07T23:47:21;3.75;2.25;1.25
73832;PMS7003;62179;48.444;-4.464;2023-05-07T23:49:47;1.00;1.00;1.00
73832;PMS7003;62179;48.444;-4.464;2023-05-07T23:52:12;2.00;1.00;1.00
73832;PMS7003;62179;48.444;-4.464;2023-05-07T23:54:38;2.00;1.50;1.00
73832;PMS7003;62179;48.444;-4.464;2023-05-07T23:57:03;1.00;0.50;0.50
73832;PMS7003;62179;48.444;-4.464;2023-05-07T23:59:29;3.00;1.00;0.75
